createdAt,value
2018-07-05T03:06:26.238Z,985.72
2018-07-05T03:07:05.001Z,985.68
2018-07-05T03:12:05.251Z,985.69
2018-07-05T03:15:03.145Z,985.72
2018-07-05T03:16:18.100Z,985.72
2018-07-05T03:27:57.626Z,985.74
2018-07-05T03:29:07.362Z,985.77
2018-07-05T03:32:48.456Z,985.83
2018-07-05T03:33:41.281Z,985.88
2018-07-05T03:35:13.684Z,985.88
2018-07-05T03:35:31.387Z,985.85
2018-07-05T03:37:52.401Z,985.84
2018-07-05T03:38:34.108Z,985.80
2018-07-05T03:39:05.072Z,985.80
2018-07-05T03:40:51.395Z,985.80
2018-07-05T03:42:08.811Z,985.79
2018-07-05T03:43:06.180Z,985.76
2018-07-05T03:44:38.256Z,985.81
2018-07-05T03:46:37.060Z,985.77
2018-07-05T03:48:56.369Z,985.68
2018-07-05T03:49:35.624Z,985.66
2018-07-05T03:50:37.879Z,985.63
2018-07-05T03:51:37.322Z,985.66
2018-07-05T03:52:31.445Z,985.64
2018-07-05T03:56:41.424Z,985.71
2018-07-05T03:57:21.874Z,985.70
2018-07-05T03:58:21.925Z,985.69
2018-07-05T04:01:54.830Z,985.76
2018-07-05T04:02:54.401Z,985.78
2018-07-05T04:04:05.588Z,985.75
2018-07-05T04:14:58.946Z,985.86
2018-07-05T05:49:18.768Z,985.79
2018-07-05T05:55:35.694Z,985.75
2018-07-05T05:56:22.768Z,985.76
2018-07-05T06:58:41.793Z,985.57
2018-07-05T06:59:42.207Z,985.58
2018-07-05T07:00:42.176Z,985.57
2018-07-05T07:01:41.752Z,985.58
2018-07-05T07:02:41.541Z,985.57
2018-07-05T07:03:45.691Z,985.60
2018-07-05T07:04:44.382Z,985.65
2018-07-05T07:05:43.951Z,985.62
2018-07-05T07:06:42.080Z,985.63
2018-07-05T07:07:42.619Z,985.65
2018-07-05T07:08:42.237Z,985.62
2018-07-05T07:09:41.928Z,985.64
2018-07-05T07:10:43.161Z,985.62
2018-07-05T07:11:43.536Z,985.62
2018-07-05T07:12:41.884Z,985.57
2018-07-05T07:13:39.789Z,985.61
2018-07-05T07:14:40.094Z,985.62
2018-07-05T07:15:42.872Z,985.56
2018-07-05T07:16:40.449Z,985.60
2018-07-05T08:12:12.913Z,985.48
2018-07-05T08:13:12.868Z,985.46
2018-07-05T08:14:12.334Z,985.44
2018-07-05T08:16:25.225Z,985.51
2018-07-05T08:17:12.746Z,985.48
2018-07-05T08:18:13.333Z,985.49
2018-07-05T08:19:13.865Z,985.49
2018-07-05T08:20:14.236Z,985.47
2018-07-05T08:21:16.424Z,985.49
2018-07-05T08:22:13.590Z,985.48
2018-07-05T08:23:12.521Z,985.46
2018-07-05T08:24:11.495Z,985.49
2018-07-05T08:25:11.743Z,985.45
2018-07-05T08:26:11.824Z,985.42
2018-07-05T08:27:12.005Z,985.38
2018-07-05T08:28:12.151Z,985.36
2018-07-05T08:29:12.310Z,985.34
2018-07-05T08:30:12.572Z,985.30
2018-07-05T08:31:12.695Z,985.31
2018-07-05T08:32:12.915Z,985.27
2018-07-05T08:33:13.074Z,985.25
2018-07-05T08:34:13.304Z,985.23
2018-07-05T08:35:13.419Z,985.23
2018-07-05T08:36:13.658Z,985.26
2018-07-05T08:37:13.852Z,985.26
2018-07-05T08:38:13.910Z,985.22
2018-07-05T08:39:14.142Z,985.18
2018-07-05T08:40:14.361Z,985.16
2018-07-05T08:41:14.526Z,985.20
2018-07-05T08:42:14.648Z,985.18
2018-07-05T08:43:14.826Z,985.20
2018-07-05T08:44:14.952Z,985.17
2018-07-05T08:45:16.797Z,985.24
2018-07-05T08:46:16.589Z,985.20
2018-07-05T08:47:15.756Z,985.23
2018-07-05T08:48:16.333Z,985.22
2018-07-05T08:49:16.128Z,985.21
2018-07-05T08:50:16.193Z,985.18
2018-07-05T08:51:16.570Z,985.20
2018-07-05T08:52:16.584Z,985.17
2018-07-05T08:53:16.807Z,985.15
2018-07-05T08:54:17.022Z,985.14
2018-07-05T08:55:17.591Z,985.19
2018-07-05T08:56:17.379Z,985.20
2018-07-05T08:57:17.513Z,985.20
2018-07-05T08:58:17.915Z,985.13
2018-07-05T08:59:17.987Z,985.19
2018-07-05T09:00:18.089Z,985.17
2018-07-05T09:01:18.239Z,985.15
2018-07-05T09:02:18.530Z,985.15
2018-07-05T09:03:18.625Z,985.15
2018-07-05T09:04:18.847Z,985.11
2018-07-05T09:05:19.140Z,985.13
2018-07-05T09:06:19.207Z,985.13
2018-07-05T09:07:19.427Z,985.16
2018-07-05T09:08:19.664Z,985.15
2018-07-05T09:09:19.839Z,985.15
2018-07-05T09:10:19.993Z,985.12
2018-07-05T09:11:20.193Z,985.15
2018-07-05T09:12:20.370Z,985.13
2018-07-05T09:13:20.623Z,985.14
2018-07-05T09:14:20.586Z,985.13
2018-07-05T09:15:20.817Z,985.13
2018-07-05T09:16:21.050Z,985.13
2018-07-05T09:17:21.278Z,985.18
2018-07-05T09:18:21.394Z,985.15
2018-07-05T09:19:21.532Z,985.15
2018-07-05T09:20:21.712Z,985.13
2018-07-05T09:21:21.933Z,985.12
2018-07-05T09:22:22.048Z,985.13
2018-07-05T09:23:22.278Z,985.13
2018-07-05T09:24:22.410Z,985.14
2018-07-05T09:25:22.543Z,985.11
2018-07-05T09:26:22.732Z,985.13
2018-07-05T09:27:23.006Z,985.09
2018-07-05T09:28:23.146Z,985.10
2018-07-05T09:29:23.427Z,985.08
2018-07-05T09:30:23.456Z,985.08
2018-07-05T09:31:23.667Z,985.05
2018-07-05T09:32:23.942Z,985.07
2018-07-05T09:33:24.023Z,985.03
2018-07-05T09:34:26.201Z,985.05
2018-07-05T09:35:24.714Z,985.03
2018-07-05T09:36:25.209Z,985.03
2018-07-05T09:37:25.002Z,984.95
2018-07-05T09:38:25.318Z,984.95
2018-07-05T11:11:33.839Z,985.18
2018-07-05T12:07:10.124Z,985.13
2018-07-05T12:23:16.551Z,984.73
2018-07-05T12:24:17.098Z,984.72
2018-07-05T12:25:18.097Z,984.70
2018-07-05T12:26:16.082Z,984.67
2018-07-05T12:27:15.496Z,984.66
2018-07-05T12:28:14.291Z,984.71
2018-07-05T12:29:14.618Z,984.69
2018-07-05T12:30:14.698Z,984.67
2018-07-05T12:31:14.918Z,984.73
2018-07-05T12:32:15.148Z,984.64
2018-07-05T12:33:15.283Z,984.59
2018-07-05T12:34:15.520Z,984.60
2018-07-05T12:35:15.771Z,984.58
2018-07-05T12:36:16.356Z,984.51
2018-07-05T12:37:16.291Z,984.46
2018-07-05T12:38:18.031Z,984.44
2018-07-05T12:39:16.963Z,984.50
2018-07-05T12:40:16.737Z,984.49
2018-07-05T12:41:16.832Z,984.57
2018-07-05T12:42:17.057Z,984.53
2018-07-05T12:43:17.345Z,984.55
2018-07-05T12:44:17.234Z,984.58
2018-07-05T12:45:17.448Z,984.57
2018-07-05T12:46:17.651Z,984.62
2018-07-05T12:47:17.750Z,984.60
2018-07-05T12:48:17.957Z,984.59
2018-07-05T12:49:18.936Z,984.62
2018-07-05T12:50:18.520Z,984.66
2018-07-05T12:51:19.931Z,984.64
2018-07-05T12:52:18.832Z,984.64
2018-07-05T12:53:19.460Z,984.65
2018-07-05T12:54:19.753Z,984.69
2018-07-05T12:55:19.680Z,984.71
2018-07-05T12:56:19.594Z,984.71
2018-07-05T12:57:20.761Z,984.72
2018-07-05T12:58:19.969Z,984.71
2018-07-05T12:59:20.746Z,984.70
2018-07-05T13:00:20.799Z,984.71
2018-07-05T13:01:20.878Z,984.69
2018-07-05T13:02:22.313Z,984.73
2018-07-05T13:03:21.127Z,984.76
2018-07-05T13:04:21.925Z,984.65
2018-07-05T13:05:21.439Z,984.67
2018-07-05T13:06:21.879Z,984.67
2018-07-05T13:07:21.699Z,984.68
2018-07-05T13:08:21.831Z,984.67
2018-07-05T13:09:21.862Z,984.69
2018-07-05T13:10:22.251Z,984.66
2018-07-05T13:11:22.212Z,984.72
2018-07-05T13:12:22.584Z,984.69
2018-07-05T13:16:10.131Z,984.72
2018-07-05T13:17:16.214Z,984.71
2018-07-05T13:28:02.606Z,984.79
2018-07-05T13:29:18.630Z,984.78
2018-07-05T13:30:10.821Z,984.84
2018-07-05T13:31:08.385Z,984.81
2018-07-05T13:33:10.161Z,984.79
2018-07-05T13:34:04.002Z,984.79
2018-07-05T13:35:02.654Z,984.77
2018-07-05T13:36:01.610Z,984.79
2018-07-05T13:37:01.807Z,984.80
2018-07-05T13:38:02.141Z,984.78
2018-07-05T13:39:02.070Z,984.79
2018-07-05T13:40:02.398Z,984.82
2018-07-05T13:41:02.463Z,984.78
2018-07-05T13:42:02.694Z,984.84
2018-07-05T13:43:02.908Z,984.86
2018-07-05T13:44:02.980Z,984.91
2018-07-05T13:45:03.269Z,984.91
2018-07-05T13:46:03.431Z,984.91
2018-07-05T13:47:03.770Z,984.93
2018-07-05T13:48:03.765Z,984.93
2018-07-05T13:49:03.955Z,984.92
2018-07-05T13:50:04.747Z,984.93
2018-07-05T13:51:05.315Z,984.93
2018-07-05T13:52:04.569Z,984.97
2018-07-05T13:53:04.802Z,984.89
2018-07-05T13:54:04.936Z,984.91
2018-07-05T13:55:05.282Z,984.97
2018-07-05T13:56:05.189Z,984.96
2018-07-05T13:57:05.542Z,984.94
2018-07-05T13:58:05.541Z,984.95
2018-07-05T13:59:05.731Z,984.94
2018-07-05T14:00:05.907Z,984.98
2018-07-05T14:01:06.214Z,984.93
2018-07-05T14:02:06.380Z,984.92
2018-07-05T14:03:06.624Z,984.95
2018-07-05T14:04:06.695Z,984.98
2018-07-05T14:05:07.127Z,984.97
2018-07-05T14:06:07.275Z,984.96
2018-07-05T14:07:07.362Z,984.99
2018-07-05T14:08:07.558Z,984.99
2018-07-05T14:09:07.871Z,985.01
2018-07-05T14:10:08.703Z,985.01
2018-07-05T14:11:07.999Z,984.95
2018-07-05T14:12:08.226Z,984.99
2018-07-05T14:13:08.481Z,984.97
2018-07-05T14:14:08.556Z,984.98
2018-07-05T14:15:08.949Z,984.97
2018-07-05T14:16:09.060Z,984.91
2018-07-05T14:17:09.079Z,984.97
2018-07-05T14:18:09.272Z,984.89
2018-07-05T14:19:09.590Z,984.92
2018-07-05T14:20:09.747Z,984.91
2018-07-05T14:21:10.200Z,984.92
2018-07-05T14:22:09.899Z,984.91
2018-07-05T14:23:10.112Z,984.94
2018-07-05T14:24:10.367Z,984.85
2018-07-05T14:25:10.607Z,984.85
2018-07-05T14:26:10.770Z,984.86
2018-07-05T14:27:10.837Z,984.87
2018-07-05T14:28:11.946Z,984.85
2018-07-05T14:29:12.470Z,984.79
2018-07-05T14:30:11.925Z,984.86
2018-07-05T14:31:12.100Z,984.84
2018-07-05T14:32:12.053Z,984.91
2018-07-05T14:33:12.399Z,984.88
2018-07-05T14:34:12.102Z,984.86
2018-07-05T14:35:14.074Z,984.89
2018-07-05T14:36:12.970Z,984.92
2018-07-05T14:47:10.287Z,984.73
2018-07-05T14:48:08.923Z,984.70
2018-07-05T14:51:38.644Z,984.71
2018-07-05T14:55:18.038Z,984.65
2018-07-05T14:58:29.549Z,984.74
2018-07-05T15:08:16.421Z,984.84
2018-07-05T15:10:31.946Z,984.90
2018-07-05T16:12:05.787Z,985.14
2018-07-05T16:15:03.493Z,985.15
2018-07-05T16:17:11.323Z,985.16
2018-07-05T19:30:58.821Z,985.95
2018-07-05T19:31:58.978Z,985.94
2018-07-05T19:40:30.777Z,986.04
2018-07-05T20:01:10.898Z,986.17
2018-07-05T20:01:50.881Z,986.17
2018-07-05T20:02:51.772Z,986.20
2018-07-05T20:06:10.602Z,986.22
2018-07-05T20:07:04.158Z,986.22
2018-07-05T20:08:04.369Z,986.21
2018-07-05T20:09:05.336Z,986.26
2018-07-05T20:29:38.536Z,986.35
2018-07-05T20:30:47.080Z,986.37
